sensor_id;sensor_type;location;lat;lon;timestamp;P1;durP1;ratioP1;P2;durP2;ratioP2
66145;SDS011;52948;60.040;30.320;2023-02-25T00:01:25;22.20;;;11.32;;
66145;SDS011;52948;60.040;30.320;2023-02-25T00:06:29;26.48;;;12.20;;
66145;SDS011;52948;60.040;30.320;2023-02-25T00:11:31;20.95;;;10.73;;
66145;SDS011;52948;60.040;30.320;2023-02-25T00:16:33;27.70;;;12.48;;
66145;SDS011;52948;60.040;30.320;2023-02-25T00:21:39;23.67;;;11.93;;
66145;SDS011;52948;60.040;30.320;2023-02-25T00:26:41;22.65;;;11.27;;
66145;SDS011;52948;60.040;30.320;2023-02-25T00:31:49;24.50;;;11.70;;
66145;SDS011;52948;60.040;30.320;2023-02-25T00:36:51;21.63;;;11.77;;
66145;SDS011;52948;60.040;30.320;2023-02-25T00:41:57;21.70;;;11.10;;
66145;SDS011;52948;60.040;30.320;2023-02-25T00:46:59;24.65;;;11.82;;
66145;SDS011;52948;60.040;30.320;2023-02-25T00:52:01;22.08;;;12.10;;
66145;SDS011;52948;60.040;30.320;2023-02-25T00:57:05;26.33;;;13.68;;
66145;SDS011;52948;60.040;30.320;2023-02-25T01:02:08;21.75;;;12.40;;
66145;SDS011;52948;60.040;30.320;2023-02-25T01:07:10;30.27;;;13.30;;
66145;SDS011;52948;60.040;30.320;2023-02-25T01:12:13;27.65;;;13.10;;
66145;SDS011;52948;60.040;30.320;2023-02-25T01:17:15;26.23;;;12.55;;
66145;SDS011;52948;60.040;30.320;2023-02-25T01:22:18;26.05;;;13.60;;
66145;SDS011;52948;60.040;30.320;2023-02-25T01:27:21;25.92;;;14.30;;
66145;SDS011;52948;60.040;30.320;2023-02-25T01:32:24;25.02;;;13.52;;
66145;SDS011;52948;60.040;30.320;2023-02-25T01:37:26;25.98;;;13.38;;
66145;SDS011;52948;60.040;30.320;2023-02-25T01:42:28;29.48;;;13.15;;
66145;SDS011;52948;60.040;30.320;2023-02-25T01:47:32;29.88;;;13.77;;
66145;SDS011;52948;60.040;30.320;2023-02-25T01:52:37;29.10;;;12.85;;
66145;SDS011;52948;60.040;30.320;2023-02-25T01:57:41;26.08;;;13.75;;
66145;SDS011;52948;60.040;30.320;2023-02-25T02:02:46;28.13;;;13.85;;
66145;SDS011;52948;60.040;30.320;2023-02-25T02:07:50;27.08;;;13.13;;
66145;SDS011;52948;60.040;30.320;2023-02-25T02:12:52;28.42;;;13.65;;
66145;SDS011;52948;60.040;30.320;2023-02-25T02:18:01;27.38;;;14.52;;
66145;SDS011;52948;60.040;30.320;2023-02-25T02:55:40;24.83;;;13.52;;
66145;SDS011;52948;60.040;30.320;2023-02-25T03:00:48;25.27;;;13.57;;
66145;SDS011;52948;60.040;30.320;2023-02-25T03:05:53;28.33;;;14.57;;
66145;SDS011;52948;60.040;30.320;2023-02-25T03:10:55;25.33;;;13.45;;
66145;SDS011;52948;60.040;30.320;2023-02-25T03:15:58;26.50;;;12.02;;
66145;SDS011;52948;60.040;30.320;2023-02-25T03:21:02;30.13;;;13.00;;
66145;SDS011;52948;60.040;30.320;2023-02-25T03:32:06;27.60;;;14.73;;
66145;SDS011;52948;60.040;30.320;2023-02-25T03:37:20;21.55;;;10.88;;
66145;SDS011;52948;60.040;30.320;2023-02-25T03:42:28;25.10;;;13.80;;
66145;SDS011;52948;60.040;30.320;2023-02-25T03:47:33;25.27;;;12.50;;
66145;SDS011;52948;60.040;30.320;2023-02-25T03:52:40;24.50;;;12.43;;
66145;SDS011;52948;60.040;30.320;2023-02-25T03:58:01;20.10;;;9.80;;
66145;SDS011;52948;60.040;30.320;2023-02-25T04:03:08;24.48;;;11.52;;
66145;SDS011;52948;60.040;30.320;2023-02-25T04:08:10;20.23;;;10.82;;
66145;SDS011;52948;60.040;30.320;2023-02-25T04:13:20;21.85;;;12.32;;
66145;SDS011;52948;60.040;30.320;2023-02-25T04:18:24;23.70;;;11.57;;
66145;SDS011;52948;60.040;30.320;2023-02-25T04:23:27;24.30;;;11.98;;
66145;SDS011;52948;60.040;30.320;2023-02-25T04:28:29;26.17;;;12.98;;
66145;SDS011;52948;60.040;30.320;2023-02-25T04:33:35;22.77;;;12.02;;
66145;SDS011;52948;60.040;30.320;2023-02-25T04:38:38;23.17;;;11.32;;
66145;SDS011;52948;60.040;30.320;2023-02-25T04:43:44;22.48;;;11.68;;
66145;SDS011;52948;60.040;30.320;2023-02-25T04:48:47;21.17;;;11.50;;
66145;SDS011;52948;60.040;30.320;2023-02-25T04:53:49;22.98;;;11.02;;
66145;SDS011;52948;60.040;30.320;2023-02-25T04:58:51;19.60;;;11.05;;
66145;SDS011;52948;60.040;30.320;2023-02-25T05:03:54;22.45;;;11.55;;
66145;SDS011;52948;60.040;30.320;2023-02-25T05:08:57;24.20;;;11.05;;
66145;SDS011;52948;60.040;30.320;2023-02-25T05:14:00;23.23;;;11.20;;
66145;SDS011;52948;60.040;30.320;2023-02-25T05:19:02;20.98;;;10.57;;
66145;SDS011;52948;60.040;30.320;2023-02-25T05:24:04;16.05;;;8.30;;
66145;SDS011;52948;60.040;30.320;2023-02-25T05:29:07;21.42;;;11.18;;
66145;SDS011;52948;60.040;30.320;2023-02-25T05:34:10;22.98;;;11.13;;
66145;SDS011;52948;60.040;30.320;2023-02-25T05:39:12;23.58;;;12.48;;
66145;SDS011;52948;60.040;30.320;2023-02-25T05:44:15;23.73;;;11.98;;
66145;SDS011;52948;60.040;30.320;2023-02-25T05:49:17;24.02;;;10.43;;
66145;SDS011;52948;60.040;30.320;2023-02-25T05:54:19;22.27;;;11.68;;
66145;SDS011;52948;60.040;30.320;2023-02-25T05:59:22;26.48;;;12.13;;
66145;SDS011;52948;60.040;30.320;2023-02-25T06:04:27;24.35;;;12.32;;
66145;SDS011;52948;60.040;30.320;2023-02-25T06:09:30;25.85;;;13.35;;
66145;SDS011;52948;60.040;30.320;2023-02-25T06:14:32;28.00;;;12.88;;
66145;SDS011;52948;60.040;30.320;2023-02-25T06:19:35;25.73;;;12.43;;
66145;SDS011;52948;60.040;30.320;2023-02-25T06:24:37;29.88;;;12.63;;
66145;SDS011;52948;60.040;30.320;2023-02-25T06:29:41;26.08;;;13.25;;
66145;SDS011;52948;60.040;30.320;2023-02-25T06:34:46;25.38;;;11.82;;
66145;SDS011;52948;60.040;30.320;2023-02-25T06:39:49;24.20;;;11.43;;
66145;SDS011;52948;60.040;30.320;2023-02-25T06:44:51;25.65;;;12.20;;
66145;SDS011;52948;60.040;30.320;2023-02-25T06:49:53;26.63;;;12.75;;
66145;SDS011;52948;60.040;30.320;2023-02-25T06:54:58;22.02;;;12.40;;
66145;SDS011;52948;60.040;30.320;2023-02-25T07:00:00;24.38;;;11.23;;
66145;SDS011;52948;60.040;30.320;2023-02-25T07:05:03;25.85;;;12.98;;
66145;SDS011;52948;60.040;30.320;2023-02-25T07:10:06;21.30;;;12.48;;
66145;SDS011;52948;60.040;30.320;2023-02-25T07:15:09;22.05;;;12.60;;
66145;SDS011;52948;60.040;30.320;2023-02-25T07:20:11;22.42;;;11.50;;
66145;SDS011;52948;60.040;30.320;2023-02-25T07:25:19;25.95;;;11.95;;
66145;SDS011;52948;60.040;30.320;2023-02-25T07:30:21;22.47;;;11.87;;
66145;SDS011;52948;60.040;30.320;2023-02-25T07:35:23;25.00;;;12.73;;
66145;SDS011;52948;60.040;30.320;2023-02-25T07:40:26;23.50;;;12.60;;
66145;SDS011;52948;60.040;30.320;2023-02-25T07:45:28;21.38;;;11.57;;
66145;SDS011;52948;60.040;30.320;2023-02-25T07:50:31;17.10;;;8.35;;
66145;SDS011;52948;60.040;30.320;2023-02-25T07:55:33;13.70;;;6.90;;
66145;SDS011;52948;60.040;30.320;2023-02-25T08:00:36;20.02;;;8.93;;
66145;SDS011;52948;60.040;30.320;2023-02-25T08:05:39;24.65;;;11.75;;
66145;SDS011;52948;60.040;30.320;2023-02-25T08:10:41;11.05;;;5.30;;
66145;SDS011;52948;60.040;30.320;2023-02-25T08:15:44;17.55;;;8.93;;
66145;SDS011;52948;60.040;30.320;2023-02-25T08:20:47;8.30;;;4.53;;
66145;SDS011;52948;60.040;30.320;2023-02-25T08:25:53;20.63;;;9.75;;
66145;SDS011;52948;60.040;30.320;2023-02-25T08:30:56;20.77;;;8.25;;
66145;SDS011;52948;60.040;30.320;2023-02-25T08:36:08;17.73;;;7.78;;
66145;SDS011;52948;60.040;30.320;2023-02-25T08:41:11;7.47;;;4.38;;
66145;SDS011;52948;60.040;30.320;2023-02-25T08:46:14;18.13;;;8.00;;
66145;SDS011;52948;60.040;30.320;2023-02-25T08:51:16;9.18;;;4.50;;
66145;SDS011;52948;60.040;30.320;2023-02-25T08:56:19;13.13;;;6.53;;
66145;SDS011;52948;60.040;30.320;2023-02-25T09:01:22;20.27;;;9.80;;
66145;SDS011;52948;60.040;30.320;2023-02-25T09:06:25;22.83;;;10.15;;
66145;SDS011;52948;60.040;30.320;2023-02-25T09:11:28;22.83;;;9.77;;
66145;SDS011;52948;60.040;30.320;2023-02-25T09:16:31;20.75;;;10.35;;
66145;SDS011;52948;60.040;30.320;2023-02-25T09:21:33;13.25;;;5.25;;
66145;SDS011;52948;60.040;30.320;2023-02-25T09:26:36;24.50;;;9.85;;
66145;SDS011;52948;60.040;30.320;2023-02-25T09:31:42;22.23;;;8.98;;
66145;SDS011;52948;60.040;30.320;2023-02-25T09:36:44;10.40;;;5.50;;
66145;SDS011;52948;60.040;30.320;2023-02-25T09:41:56;8.30;;;5.28;;
66145;SDS011;52948;60.040;30.320;2023-02-25T09:47:03;11.80;;;5.40;;
66145;SDS011;52948;60.040;30.320;2023-02-25T09:57:29;6.97;;;3.80;;
66145;SDS011;52948;60.040;30.320;2023-02-25T10:02:35;11.30;;;5.85;;
66145;SDS011;52948;60.040;30.320;2023-02-25T10:29:27;11.95;;;5.45;;
66145;SDS011;52948;60.040;30.320;2023-02-25T10:34:32;14.88;;;8.23;;
66145;SDS011;52948;60.040;30.320;2023-02-25T10:39:40;10.00;;;5.03;;
66145;SDS011;52948;60.040;30.320;2023-02-25T10:44:43;23.00;;;10.27;;
66145;SDS011;52948;60.040;30.320;2023-02-25T11:01:03;14.43;;;6.40;;
66145;SDS011;52948;60.040;30.320;2023-02-25T11:06:11;9.65;;;5.30;;
66145;SDS011;52948;60.040;30.320;2023-02-25T11:11:22;9.30;;;4.85;;
66145;SDS011;52948;60.040;30.320;2023-02-25T11:16:25;23.42;;;10.98;;
66145;SDS011;52948;60.040;30.320;2023-02-25T11:21:30;8.18;;;3.53;;
66145;SDS011;52948;60.040;30.320;2023-02-25T11:26:36;18.52;;;8.65;;
66145;SDS011;52948;60.040;30.320;2023-02-25T11:31:44;18.42;;;7.93;;
66145;SDS011;52948;60.040;30.320;2023-02-25T11:36:49;12.27;;;7.18;;
66145;SDS011;52948;60.040;30.320;2023-02-25T11:42:01;15.68;;;7.22;;
66145;SDS011;52948;60.040;30.320;2023-02-25T11:47:25;9.00;;;5.55;;
66145;SDS011;52948;60.040;30.320;2023-02-25T11:52:45;9.70;;;5.22;;
66145;SDS011;52948;60.040;30.320;2023-02-25T12:08:34;11.52;;;5.18;;
66145;SDS011;52948;60.040;30.320;2023-02-25T12:46:29;4.18;;;1.85;;
66145;SDS011;52948;60.040;30.320;2023-02-25T13:14:19;15.63;;;7.95;;
66145;SDS011;52948;60.040;30.320;2023-02-25T13:19:38;7.10;;;3.50;;
66145;SDS011;52948;60.040;30.320;2023-02-25T13:35:46;15.25;;;6.25;;
66145;SDS011;52948;60.040;30.320;2023-02-25T13:46:48;16.85;;;7.80;;
66145;SDS011;52948;60.040;30.320;2023-02-25T13:52:16;23.00;;;9.35;;
66145;SDS011;52948;60.040;30.320;2023-02-25T13:57:48;17.77;;;6.75;;
66145;SDS011;52948;60.040;30.320;2023-02-25T14:24:28;7.45;;;4.00;;
66145;SDS011;52948;60.040;30.320;2023-02-25T14:45:17;20.13;;;8.02;;
66145;SDS011;52948;60.040;30.320;2023-02-25T15:01:09;9.90;;;5.22;;
66145;SDS011;52948;60.040;30.320;2023-02-25T15:23:08;6.47;;;2.83;;
66145;SDS011;52948;60.040;30.320;2023-02-25T15:38:42;8.73;;;4.18;;
66145;SDS011;52948;60.040;30.320;2023-02-25T15:43:48;3.58;;;2.10;;
66145;SDS011;52948;60.040;30.320;2023-02-25T15:49:02;7.32;;;3.95;;
66145;SDS011;52948;60.040;30.320;2023-02-25T15:59:39;3.72;;;1.05;;
66145;SDS011;52948;60.040;30.320;2023-02-25T16:04:45;2.63;;;1.35;;
66145;SDS011;52948;60.040;30.320;2023-02-25T16:09:55;1.37;;;1.03;;
66145;SDS011;52948;60.040;30.320;2023-02-25T16:15:00;2.10;;;1.77;;
66145;SDS011;52948;60.040;30.320;2023-02-25T16:20:20;3.03;;;2.25;;
66145;SDS011;52948;60.040;30.320;2023-02-25T16:30:53;3.30;;;1.90;;
66145;SDS011;52948;60.040;30.320;2023-02-25T16:36:04;3.25;;;2.40;;
66145;SDS011;52948;60.040;30.320;2023-02-25T16:41:13;6.32;;;2.13;;
66145;SDS011;52948;60.040;30.320;2023-02-25T16:46:19;1.52;;;1.17;;
66145;SDS011;52948;60.040;30.320;2023-02-25T16:51:36;1.70;;;1.27;;
66145;SDS011;52948;60.040;30.320;2023-02-25T16:56:41;2.58;;;1.42;;
66145;SDS011;52948;60.040;30.320;2023-02-25T17:01:47;5.57;;;3.03;;
66145;SDS011;52948;60.040;30.320;2023-02-25T17:07:04;4.07;;;2.55;;
66145;SDS011;52948;60.040;30.320;2023-02-25T17:12:09;4.40;;;2.13;;
66145;SDS011;52948;60.040;30.320;2023-02-25T17:17:38;3.55;;;2.13;;
66145;SDS011;52948;60.040;30.320;2023-02-25T17:22:43;4.88;;;2.58;;
66145;SDS011;52948;60.040;30.320;2023-02-25T17:27:46;2.72;;;1.75;;
66145;SDS011;52948;60.040;30.320;2023-02-25T17:32:53;5.28;;;2.13;;
66145;SDS011;52948;60.040;30.320;2023-02-25T17:37:59;5.00;;;2.75;;
66145;SDS011;52948;60.040;30.320;2023-02-25T17:43:45;6.25;;;2.80;;
66145;SDS011;52948;60.040;30.320;2023-02-25T17:48:34;3.70;;;2.15;;
66145;SDS011;52948;60.040;30.320;2023-02-25T17:53:46;4.10;;;2.60;;
66145;SDS011;52948;60.040;30.320;2023-02-25T17:59:04;5.63;;;2.50;;
66145;SDS011;52948;60.040;30.320;2023-02-25T18:04:36;3.05;;;1.45;;
66145;SDS011;52948;60.040;30.320;2023-02-25T18:09:44;2.57;;;1.93;;
66145;SDS011;52948;60.040;30.320;2023-02-25T18:14:53;2.63;;;1.80;;
66145;SDS011;52948;60.040;30.320;2023-02-25T18:19:58;3.70;;;1.70;;
66145;SDS011;52948;60.040;30.320;2023-02-25T18:25:26;1.40;;;1.30;;
66145;SDS011;52948;60.040;30.320;2023-02-25T18:30:29;2.17;;;1.05;;
66145;SDS011;52948;60.040;30.320;2023-02-25T18:35:32;3.30;;;1.80;;
66145;SDS011;52948;60.040;30.320;2023-02-25T18:40:37;4.03;;;2.08;;
66145;SDS011;52948;60.040;30.320;2023-02-25T18:45:41;4.40;;;1.92;;
66145;SDS011;52948;60.040;30.320;2023-02-25T18:50:44;2.55;;;1.98;;
66145;SDS011;52948;60.040;30.320;2023-02-25T18:55:46;1.27;;;1.02;;
66145;SDS011;52948;60.040;30.320;2023-02-25T19:00:50;3.55;;;1.35;;
66145;SDS011;52948;60.040;30.320;2023-02-25T19:05:58;2.28;;;1.60;;
66145;SDS011;52948;60.040;30.320;2023-02-25T19:11:01;1.20;;;1.10;;
66145;SDS011;52948;60.040;30.320;2023-02-25T19:16:05;5.63;;;1.98;;
66145;SDS011;52948;60.040;30.320;2023-02-25T19:21:11;2.80;;;1.55;;
66145;SDS011;52948;60.040;30.320;2023-02-25T19:26:15;1.98;;;1.30;;
66145;SDS011;52948;60.040;30.320;2023-02-25T19:31:17;2.72;;;1.67;;
66145;SDS011;52948;60.040;30.320;2023-02-25T19:36:19;2.30;;;1.88;;
66145;SDS011;52948;60.040;30.320;2023-02-25T19:41:22;3.13;;;1.80;;
66145;SDS011;52948;60.040;30.320;2023-02-25T19:46:24;1.75;;;1.27;;
66145;SDS011;52948;60.040;30.320;2023-02-25T19:51:26;1.55;;;1.45;;
66145;SDS011;52948;60.040;30.320;2023-02-25T19:56:28;1.77;;;1.23;;
66145;SDS011;52948;60.040;30.320;2023-02-25T20:01:32;4.15;;;1.83;;
66145;SDS011;52948;60.040;30.320;2023-02-25T20:06:34;1.00;;;0.88;;
66145;SDS011;52948;60.040;30.320;2023-02-25T20:11:36;2.53;;;1.30;;
66145;SDS011;52948;60.040;30.320;2023-02-25T20:16:42;0.95;;;0.75;;
66145;SDS011;52948;60.040;30.320;2023-02-25T20:21:44;0.80;;;0.80;;
66145;SDS011;52948;60.040;30.320;2023-02-25T20:26:48;0.98;;;0.82;;
66145;SDS011;52948;60.040;30.320;2023-02-25T20:31:50;5.95;;;1.00;;
66145;SDS011;52948;60.040;30.320;2023-02-25T20:36:54;2.75;;;1.65;;
66145;SDS011;52948;60.040;30.320;2023-02-25T20:42:00;1.60;;;0.90;;
66145;SDS011;52948;60.040;30.320;2023-02-25T20:47:05;1.08;;;0.50;;
66145;SDS011;52948;60.040;30.320;2023-02-25T20:52:09;3.38;;;1.58;;
66145;SDS011;52948;60.040;30.320;2023-02-25T20:57:14;1.27;;;0.85;;
66145;SDS011;52948;60.040;30.320;2023-02-25T21:02:18;2.13;;;1.33;;
66145;SDS011;52948;60.040;30.320;2023-02-25T21:07:20;2.17;;;1.55;;
66145;SDS011;52948;60.040;30.320;2023-02-25T21:12:25;0.82;;;0.82;;
66145;SDS011;52948;60.040;30.320;2023-02-25T21:17:28;0.85;;;0.60;;
66145;SDS011;52948;60.040;30.320;2023-02-25T21:22:31;2.00;;;1.20;;
66145;SDS011;52948;60.040;30.320;2023-02-25T21:27:34;1.52;;;0.98;;
66145;SDS011;52948;60.040;30.320;2023-02-25T21:32:39;1.08;;;0.93;;
66145;SDS011;52948;60.040;30.320;2023-02-25T21:37:41;1.52;;;1.00;;
66145;SDS011;52948;60.040;30.320;2023-02-25T21:42:44;0.50;;;0.50;;
66145;SDS011;52948;60.040;30.320;2023-02-25T21:47:46;1.42;;;1.30;;
66145;SDS011;52948;60.040;30.320;2023-02-25T21:52:48;1.63;;;1.25;;
66145;SDS011;52948;60.040;30.320;2023-02-25T21:57:50;0.80;;;0.70;;
66145;SDS011;52948;60.040;30.320;2023-02-25T22:02:54;1.38;;;1.02;;
66145;SDS011;52948;60.040;30.320;2023-02-25T22:07:56;1.23;;;0.93;;
66145;SDS011;52948;60.040;30.320;2023-02-25T22:12:59;2.92;;;2.00;;
66145;SDS011;52948;60.040;30.320;2023-02-25T22:18:01;3.38;;;1.60;;
66145;SDS011;52948;60.040;30.320;2023-02-25T22:23:04;2.53;;;0.88;;
66145;SDS011;52948;60.040;30.320;2023-02-25T22:28:06;1.67;;;0.85;;
66145;SDS011;52948;60.040;30.320;2023-02-25T22:33:09;1.90;;;1.40;;
66145;SDS011;52948;60.040;30.320;2023-02-25T22:38:11;4.65;;;2.28;;
66145;SDS011;52948;60.040;30.320;2023-02-25T22:43:13;0.85;;;0.77;;
66145;SDS011;52948;60.040;30.320;2023-02-25T22:48:16;2.97;;;1.20;;
66145;SDS011;52948;60.040;30.320;2023-02-25T22:53:18;3.50;;;1.45;;
66145;SDS011;52948;60.040;30.320;2023-02-25T22:58:20;0.95;;;0.82;;
66145;SDS011;52948;60.040;30.320;2023-02-25T23:03:22;1.10;;;1.00;;
66145;SDS011;52948;60.040;30.320;2023-02-25T23:08:25;2.40;;;1.23;;
66145;SDS011;52948;60.040;30.320;2023-02-25T23:13:27;3.17;;;1.75;;
66145;SDS011;52948;60.040;30.320;2023-02-25T23:18:29;3.58;;;1.38;;
66145;SDS011;52948;60.040;30.320;2023-02-25T23:23:34;1.63;;;0.93;;
66145;SDS011;52948;60.040;30.320;2023-02-25T23:28:39;4.07;;;2.40;;
66145;SDS011;52948;60.040;30.320;2023-02-25T23:33:41;3.40;;;1.92;;
66145;SDS011;52948;60.040;30.320;2023-02-25T23:38:44;3.53;;;2.55;;
66145;SDS011;52948;60.040;30.320;2023-02-25T23:43:46;3.75;;;2.00;;
66145;SDS011;52948;60.040;30.320;2023-02-25T23:48:48;6.00;;;2.97;;
66145;SDS011;52948;60.040;30.320;2023-02-25T23:53:51;6.35;;;2.15;;
66145;SDS011;52948;60.040;30.320;2023-02-25T23:58:54;3.95;;;2.60;;
